Kingaroy, Australia
Current Conditions -  °F | °C
As of 4:00 AM on Wednesday 22 Oct 2014 (Local Time) from YBOK Reporting Station
Clear Clear  
Wind Chill: 54°   Ceiling: Unl
Heat Index: 54°   Visibility: 6mi
Dew Point: 48°   Wind: 6mph
Humidity: 82%   Direction: 70°ENE
Pressure: 30.27"   Gusts: NA
Location:  26.54°S, 151.84°E
Report Text: YBOK 211800Z AUTO 07005KT 9999 // NCD 12/09 Q1025
Loading
Personal Weather Stations






























Interactive Weather Map
Tropical Storm Tracking
New forecast layout! Learn more

10-Day Weather Forecast

Advertisements
Track Severe Weather on mobile